Time;durP1;ratioP1;P1;durP2;ratioP2;P2;SDS_P1;SDS_P2;PMS_P1;PMS_P2;Temp;Humidity;BMP_temperature;BMP_pressure;BME280_temperature;BME280_humidity;BME280_pressure;Samples;Min_cycle;Max_cycle;Signal;HPM_P1;HPM_P2
2023/01/16 00:01:25;;;;;;;1.30;1.30;;;6.60;99.90;;;;;;5114114;28;20182;-62
2023/01/16 00:03:51;;;;;;;1.10;1.10;;;6.60;99.90;;;;;;5112431;28;20196;-63
2023/01/16 00:06:17;;;;;;;1.27;1.20;;;6.70;99.90;;;;;;5096645;28;20581;-66
2023/01/16 00:08:43;;;;;;;1.37;1.37;;;6.60;99.90;;;;;;5115544;28;20674;-69
2023/01/16 00:11:09;;;;;;;1.40;1.30;;;6.60;99.90;;;;;;5115536;28;20171;-66
2023/01/16 00:13:36;;;;;;;1.37;1.33;;;6.60;99.90;;;;;;5115603;28;20178;-65
2023/01/16 00:16:02;;;;;;;1.23;1.23;;;6.60;99.90;;;;;;5115941;28;20172;-63
2023/01/16 00:18:28;;;;;;;1.50;1.40;;;6.60;99.90;;;;;;5094093;28;20175;-67
2023/01/16 00:20:54;;;;;;;1.30;1.27;;;6.50;99.90;;;;;;5115368;28;20173;-65
2023/01/16 00:23:19;;;;;;;1.57;1.47;;;6.50;99.90;;;;;;5128062;27;20267;-65
2023/01/16 00:25:45;;;;;;;1.50;1.50;;;6.50;99.90;;;;;;5117728;27;20175;-63
2023/01/16 00:28:13;;;;;;;1.33;1.33;;;6.50;99.90;;;;;;5136034;27;20584;-64
2023/01/16 00:30:39;;;;;;;1.27;1.27;;;6.50;99.90;;;;;;5135802;27;20175;-66
2023/01/16 00:33:05;;;;;;;1.43;1.37;;;6.50;99.90;;;;;;5136055;27;20506;-66
2023/01/16 00:35:32;;;;;;;1.90;1.47;;;6.50;99.90;;;;;;5136101;27;20197;-63
2023/01/16 00:37:58;;;;;;;1.60;1.40;;;6.50;99.90;;;;;;5136009;27;20205;-66
2023/01/16 00:40:24;;;;;;;1.30;1.30;;;6.50;99.90;;;;;;5136012;27;20652;-66
2023/01/16 00:42:50;;;;;;;1.67;1.57;;;6.50;99.90;;;;;;5135555;27;20205;-66
2023/01/16 00:45:15;;;;;;;1.80;1.47;;;6.50;99.90;;;;;;5135600;27;20226;-69
2023/01/16 00:47:41;;;;;;;1.80;1.70;;;6.60;99.90;;;;;;5135558;27;20181;-68
2023/01/16 00:50:08;;;;;;;1.53;1.53;;;6.60;99.90;;;;;;5135678;27;20224;-69
2023/01/16 00:52:34;;;;;;;1.77;1.67;;;6.60;99.90;;;;;;5135545;27;20261;-69
2023/01/16 00:54:59;;;;;;;1.83;1.60;;;6.50;99.90;;;;;;5135902;27;20254;-70
2023/01/16 00:57:25;;;;;;;1.90;1.80;;;6.50;99.90;;;;;;5135607;27;20637;-66
2023/01/16 00:59:51;;;;;;;1.77;1.73;;;6.50;99.90;;;;;;5135543;27;20620;-64
2023/01/16 01:02:17;;;;;;;2.07;1.97;;;6.40;99.90;;;;;;5135293;27;20213;-64
2023/01/16 01:04:42;;;;;;;2.20;2.00;;;6.50;99.90;;;;;;5116852;27;20206;-65
2023/01/16 01:07:08;;;;;;;2.27;2.17;;;6.40;99.90;;;;;;5135282;27;20207;-64
2023/01/16 01:09:34;;;;;;;2.03;1.93;;;6.40;99.90;;;;;;5135166;27;20256;-62
2023/01/16 01:12:00;;;;;;;1.90;1.80;;;6.40;99.90;;;;;;5134906;27;20192;-64
2023/01/16 01:14:26;;;;;;;1.97;1.87;;;6.40;99.90;;;;;;5135483;27;20179;-61
2023/01/16 01:16:52;;;;;;;2.37;1.90;;;6.30;99.90;;;;;;5134924;27;20691;-61
2023/01/16 01:19:17;;;;;;;2.87;2.00;;;6.30;99.90;;;;;;5135161;27;20171;-61
2023/01/16 01:21:43;;;;;;;2.20;2.10;;;6.30;99.90;;;;;;5135753;27;20260;-63
2023/01/16 01:24:09;;;;;;;3.70;2.40;;;6.40;99.90;;;;;;5135119;27;20172;-63
2023/01/16 01:26:35;;;;;;;2.67;1.80;;;6.40;99.90;;;;;;5116415;27;20166;-62
2023/01/16 01:29:01;;;;;;;2.30;2.10;;;6.30;99.90;;;;;;5134700;27;20181;-63
2023/01/16 01:31:27;;;;;;;1.90;1.77;;;6.40;99.90;;;;;;5134593;27;20178;-63
2023/01/16 01:33:53;;;;;;;1.90;1.80;;;6.30;99.90;;;;;;5134751;27;20173;-62
2023/01/16 01:36:19;;;;;;;2.10;2.00;;;6.30;99.90;;;;;;5134816;27;20170;-63
2023/01/16 01:38:46;;;;;;;1.90;1.80;;;6.20;99.90;;;;;;5134595;27;20684;-62
2023/01/16 01:41:13;;;;;;;1.63;1.53;;;6.20;99.90;;;;;;5134716;27;20175;-62
2023/01/16 01:43:48;;;;;;;1.73;1.70;;;6.20;99.90;;;;;;5134501;27;20208;-64
2023/01/16 01:46:23;;;;;;;1.90;1.80;;;6.20;99.90;;;;;;5134435;27;20311;-66
2023/01/16 01:48:54;;;;;;;1.70;1.70;;;6.20;99.90;;;;;;5134232;27;20167;-63
2023/01/16 01:51:32;;;;;;;1.70;1.60;;;6.20;99.90;;;;;;5134088;27;20734;-67
2023/01/16 01:54:09;;;;;;;1.87;1.77;;;6.10;99.90;;;;;;5134437;27;20168;-64
2023/01/16 01:56:42;;;;;;;1.73;1.63;;;6.20;99.90;;;;;;5134338;27;20359;-62
2023/01/16 01:59:14;;;;;;;1.93;1.70;;;6.10;99.90;;;;;;5116027;27;20169;-65
2023/01/16 02:01:39;;;;;;;1.80;1.80;;;5.90;99.90;;;;;;5117670;27;20202;-69
2023/01/16 02:04:13;;;;;;;1.90;1.80;;;5.90;99.90;;;;;;5136323;27;20253;-63
2023/01/16 02:06:42;;;;;;;1.93;1.83;;;6.00;99.90;;;;;;5115743;27;20534;-65
2023/01/16 02:09:08;;;;;;;1.80;1.70;;;6.00;99.90;;;;;;5133870;27;20205;-66
2023/01/16 02:11:44;;;;;;;1.47;1.47;;;6.00;99.90;;;;;;5133717;27;20254;-64
2023/01/16 02:14:14;;;;;;;1.33;1.33;;;5.90;99.90;;;;;;5134064;27;20172;-63
2023/01/16 02:19:48;;;;;;;1.53;1.53;;;5.90;99.90;;;;;;5134387;27;20185;-64
2023/01/16 02:22:46;;;;;;;1.50;1.43;;;5.70;99.90;;;;;;5133818;27;20638;-65
2023/01/16 02:25:48;;;;;;;1.13;1.13;;;5.70;99.90;;;;;;5133867;27;20166;-65
2023/01/16 02:28:31;;;;;;;1.40;1.30;;;5.70;99.90;;;;;;5133044;27;20160;-66
2023/01/16 02:31:42;;;;;;;1.10;1.10;;;5.70;99.90;;;;;;5133482;27;20162;-64
2023/01/16 02:34:44;;;;;;;1.20;1.20;;;5.60;99.90;;;;;;5128487;27;20201;-65
2023/01/16 02:37:28;;;;;;;1.67;1.57;;;5.50;99.90;;;;;;5133578;27;20194;-68
2023/01/16 02:40:07;;;;;;;1.47;1.37;;;5.50;99.90;;;;;;5133567;27;20607;-67
2023/01/16 02:42:58;;;;;;;1.50;1.40;;;5.60;99.90;;;;;;5133468;27;20197;-70
2023/01/16 02:45:30;;;;;;;1.10;1.10;;;5.40;99.90;;;;;;5114873;27;20285;-67
2023/01/16 02:48:01;;;;;;;1.40;1.30;;;5.30;99.90;;;;;;5133524;27;20187;-68
2023/01/16 02:50:32;;;;;;;1.17;1.17;;;5.30;99.90;;;;;;5133803;27;20163;-69
2023/01/16 02:53:21;;;;;;;1.83;1.73;;;5.40;99.90;;;;;;5133110;27;20170;-69
2023/01/16 02:56:04;;;;;;;1.60;1.50;;;5.40;99.90;;;;;;5133446;27;20161;-68
2023/01/16 02:58:33;;;;;;;3.03;1.20;;;5.30;99.90;;;;;;5134903;27;20162;-69
2023/01/16 03:01:00;;;;;;;0.80;0.80;;;5.40;99.90;;;;;;5133241;27;20169;-69
2023/01/16 03:03:42;;;;;;;0.83;0.83;;;5.30;99.90;;;;;;5133250;27;20244;-70
2023/01/16 03:06:20;;;;;;;0.50;0.50;;;5.30;99.90;;;;;;5133342;27;20253;-69
2023/01/16 03:09:16;;;;;;;0.83;0.83;;;5.30;99.90;;;;;;5132926;27;20207;-67
2023/01/16 03:12:07;;;;;;;0.50;0.50;;;5.20;99.90;;;;;;5114192;28;20612;-67
2023/01/16 03:14:56;;;;;;;0.60;0.60;;;5.30;99.90;;;;;;5133032;28;20166;-69
2023/01/16 03:17:40;;;;;;;0.80;0.80;;;5.30;99.90;;;;;;5133086;28;20189;-68
2023/01/16 03:20:34;;;;;;;0.77;0.73;;;5.20;99.90;;;;;;5133141;28;20295;-62
2023/01/16 03:23:28;;;;;;;0.80;0.80;;;5.10;99.90;;;;;;5132863;28;20201;-65
2023/01/16 03:26:22;;;;;;;0.70;0.70;;;5.10;99.90;;;;;;5123442;28;20181;-66
2023/01/16 03:28:56;;;;;;;0.60;0.60;;;5.00;99.90;;;;;;5093133;28;20185;-62
2023/01/16 03:31:41;;;;;;;0.60;0.60;;;5.00;99.90;;;;;;5132854;28;20286;-68
2023/01/16 03:34:21;;;;;;;0.80;0.80;;;5.00;99.90;;;;;;5132866;28;20168;-68
2023/01/16 03:37:11;;;;;;;0.67;0.67;;;4.90;99.90;;;;;;5114543;28;20168;-66
2023/01/16 03:39:46;;;;;;;0.73;0.73;;;4.80;99.90;;;;;;5134880;27;20558;-67
2023/01/16 03:42:17;;;;;;;0.67;0.67;;;4.80;99.90;;;;;;5137077;27;20203;-65
2023/01/16 03:44:52;;;;;;;0.50;0.50;;;4.80;99.90;;;;;;5136832;27;20154;-66
2023/01/16 03:47:31;;;;;;;1.40;0.80;;;4.80;99.90;;;;;;5137036;27;20164;-65
2023/01/16 03:50:03;;;;;;;0.80;0.80;;;4.70;99.90;;;;;;5136825;27;20577;-69
2023/01/16 03:52:35;;;;;;;0.63;0.63;;;4.70;99.90;;;;;;5136518;27;20612;-69
2023/01/16 03:55:04;;;;;;;0.80;0.80;;;4.70;99.90;;;;;;5136816;27;20167;-68
2023/01/16 03:57:41;;;;;;;0.80;0.80;;;4.60;99.90;;;;;;5136771;27;20166;-69
2023/01/16 04:00:08;;;;;;;0.73;0.73;;;4.60;99.90;;;;;;5136884;27;20171;-67
2023/01/16 04:02:46;;;;;;;0.80;0.80;;;4.50;99.90;;;;;;5137130;27;20199;-69
2023/01/16 04:05:24;;;;;;;0.80;0.80;;;4.50;99.90;;;;;;5138067;27;20515;-69
2023/01/16 04:08:01;;;;;;;0.57;0.57;;;4.50;99.90;;;;;;5136607;27;20160;-68
2023/01/16 04:10:34;;;;;;;0.80;0.80;;;4.40;99.90;;;;;;5136468;27;20169;-68
2023/01/16 04:13:05;;;;;;;0.80;0.80;;;4.30;99.90;;;;;;5136147;27;20160;-64
2023/01/16 04:15:34;;;;;;;0.80;0.80;;;4.20;99.90;;;;;;5136394;27;20222;-65
2023/01/16 04:18:00;;;;;;;0.70;0.70;;;4.20;99.90;;;;;;5136462;27;20173;-67
2023/01/16 04:20:28;;;;;;;0.90;0.90;;;4.20;99.90;;;;;;5136938;27;20530;-64
2023/01/16 04:22:53;;;;;;;0.90;0.90;;;4.10;99.90;;;;;;5136479;27;20212;-64
2023/01/16 04:25:20;;;;;;;1.00;1.00;;;4.00;99.90;;;;;;5136601;27;20519;-70
2023/01/16 04:27:46;;;;;;;1.07;1.07;;;4.00;99.90;;;;;;5136605;27;20172;-68
2023/01/16 04:30:15;;;;;;;1.10;1.10;;;3.90;99.90;;;;;;5136503;27;20165;-67
2023/01/16 04:32:41;;;;;;;1.30;1.30;;;3.80;99.90;;;;;;5137048;27;20186;-69
2023/01/16 04:35:07;;;;;;;1.20;1.20;;;3.80;99.90;;;;;;5136537;27;20180;-66
2023/01/16 04:37:34;;;;;;;1.13;1.03;;;3.70;99.90;;;;;;5136277;27;20188;-67
2023/01/16 04:39:59;;;;;;;1.30;1.30;;;3.70;99.90;;;;;;5118006;27;20166;-65
2023/01/16 04:42:25;;;;;;;1.57;1.47;;;3.70;99.90;;;;;;5136081;27;20201;-69
2023/01/16 04:44:51;;;;;;;2.00;1.70;;;3.60;99.90;;;;;;5136344;27;20209;-68
2023/01/16 04:47:17;;;;;;;1.60;1.60;;;3.60;99.90;;;;;;5117983;27;20240;-63
2023/01/16 04:49:42;;;;;;;1.80;1.70;;;3.60;99.90;;;;;;5115004;28;20244;-61
2023/01/16 04:52:10;;;;;;;1.70;1.60;;;3.50;99.90;;;;;;5114464;28;20162;-62
2023/01/16 04:54:36;;;;;;;1.87;1.77;;;3.40;99.90;;;;;;5115869;28;20172;-62
2023/01/16 04:57:02;;;;;;;1.90;1.80;;;3.40;99.90;;;;;;5115937;28;20253;-62
2023/01/16 04:59:28;;;;;;;2.00;1.90;;;3.30;99.90;;;;;;5114766;28;20169;-64
2023/01/16 05:01:54;;;;;;;1.80;1.80;;;3.20;99.90;;;;;;5115016;28;20181;-67
2023/01/16 05:04:20;;;;;;;2.10;2.00;;;3.20;99.90;;;;;;5115318;28;20570;-65
2023/01/16 05:06:46;;;;;;;1.87;1.77;;;3.20;99.90;;;;;;5114834;28;20253;-65
2023/01/16 05:09:12;;;;;;;2.13;2.03;;;3.20;99.90;;;;;;5114948;28;20796;-68
2023/01/16 05:11:38;;;;;;;1.70;1.70;;;3.20;99.90;;;;;;5114819;28;20289;-69
2023/01/16 05:14:07;;;;;;;2.03;1.93;;;3.10;99.90;;;;;;5115144;28;20688;-59
2023/01/16 05:16:38;;;;;;;1.97;1.87;;;3.10;99.90;;;;;;5096418;28;20220;-71
2023/01/16 05:19:04;;;;;;;2.20;2.10;;;3.00;99.90;;;;;;5114590;28;20184;-67
2023/01/16 05:21:31;;;;;;;2.70;2.07;;;3.00;99.90;;;;;;5114821;28;20176;-66
2023/01/16 05:23:57;;;;;;;2.83;2.63;;;2.90;99.90;;;;;;5114508;28;20560;-63
2023/01/16 05:26:23;;;;;;;2.67;2.57;;;3.00;99.90;;;;;;5096534;28;20171;-67
2023/01/16 05:28:48;;;;;;;2.00;1.90;;;3.10;99.90;;;;;;5114481;28;20180;-69
2023/01/16 05:31:14;;;;;;;1.80;1.80;;;3.10;99.90;;;;;;5115132;28;20282;-62
2023/01/16 05:33:40;;;;;;;1.70;1.60;;;3.10;99.90;;;;;;5095773;28;20663;-63
2023/01/16 05:36:06;;;;;;;1.90;1.80;;;3.00;99.90;;;;;;5114451;28;20174;-67
2023/01/16 05:38:32;;;;;;;2.00;1.90;;;3.10;99.90;;;;;;5114258;28;20170;-68
2023/01/16 05:40:58;;;;;;;1.93;1.83;;;3.10;99.90;;;;;;5113974;28;20227;-69
2023/01/16 05:43:25;;;;;;;1.80;1.70;;;3.10;99.90;;;;;;5114363;28;20200;-65
2023/01/16 05:45:51;;;;;;;1.60;1.50;;;3.20;99.90;;;;;;5114337;28;20218;-68
2023/01/16 05:48:16;;;;;;;1.80;1.70;;;3.30;99.90;;;;;;5114095;28;20577;-67
2023/01/16 05:50:42;;;;;;;1.90;1.80;;;3.30;99.90;;;;;;5095467;28;20237;-64
2023/01/16 05:53:08;;;;;;;1.83;1.73;;;3.30;99.90;;;;;;5113838;28;20173;-65
2023/01/16 05:55:45;;;;;;;1.60;1.60;;;3.20;99.90;;;;;;5114002;28;20174;-67
2023/01/16 05:58:13;;;;;;;1.63;1.53;;;3.20;99.90;;;;;;5112513;28;20230;-67
2023/01/16 06:00:40;;;;;;;2.30;1.40;;;3.20;99.90;;;;;;5113660;28;20166;-66
2023/01/16 06:03:07;;;;;;;1.80;1.70;;;3.30;99.90;;;;;;5112803;28;20209;-67
2023/01/16 06:05:33;;;;;;;1.30;1.30;;;3.30;99.90;;;;;;5114219;28;20176;-65
2023/01/16 06:07:59;;;;;;;1.30;1.30;;;3.30;99.90;;;;;;5121476;28;20164;-62
2023/01/16 06:10:25;;;;;;;4.00;1.40;;;3.20;99.90;;;;;;5115227;28;20245;-66
2023/01/16 06:12:51;;;;;;;1.57;1.47;;;3.20;99.90;;;;;;5113502;28;20178;-64
2023/01/16 06:15:18;;;;;;;1.40;1.40;;;3.20;99.90;;;;;;5112598;28;20213;-64
2023/01/16 06:17:43;;;;;;;1.40;1.30;;;3.20;99.90;;;;;;5111429;28;20178;-65
2023/01/16 06:20:10;;;;;;;2.37;1.60;;;3.20;99.90;;;;;;5111608;28;20177;-64
2023/01/16 06:22:36;;;;;;;1.73;1.63;;;3.10;99.90;;;;;;5112218;28;20217;-63
2023/01/16 06:25:02;;;;;;;1.33;1.33;;;3.20;99.90;;;;;;5113292;28;20189;-67
2023/01/16 06:27:28;;;;;;;1.40;1.40;;;3.30;99.90;;;;;;5113070;28;20162;-67
2023/01/16 06:29:54;;;;;;;3.37;2.20;;;3.30;99.90;;;;;;5112796;28;20552;-67
2023/01/16 06:32:20;;;;;;;3.33;2.27;;;3.20;99.90;;;;;;5112605;28;20174;-64
2023/01/16 06:34:45;;;;;;;2.73;2.20;;;3.30;99.90;;;;;;5112858;28;20181;-65
2023/01/16 06:37:12;;;;;;;2.93;1.93;;;3.40;99.90;;;;;;5112828;28;20174;-68
2023/01/16 06:39:37;;;;;;;2.67;2.47;;;3.50;99.90;;;;;;5113048;28;20201;-64
2023/01/16 06:42:04;;;;;;;2.43;1.93;;;3.50;99.90;;;;;;5113755;28;20198;-66
2023/01/16 06:44:34;;;;;;;2.20;2.10;;;3.50;99.90;;;;;;5116072;28;20162;-65
2023/01/16 06:47:01;;;;;;;2.50;2.10;;;3.60;99.90;;;;;;5111988;28;20180;-64
2023/01/16 06:49:27;;;;;;;5.60;4.00;;;3.60;99.90;;;;;;5112884;28;20719;-63
2023/01/16 06:51:53;;;;;;;5.13;4.40;;;3.50;99.90;;;;;;5112124;28;20166;-65
2023/01/16 06:54:19;;;;;;;3.00;2.80;;;3.60;99.90;;;;;;5112346;28;20180;-65
2023/01/16 06:56:44;;;;;;;3.23;2.93;;;3.60;99.90;;;;;;5112088;28;20200;-63
2023/01/16 06:59:10;;;;;;;3.67;3.30;;;3.60;99.90;;;;;;5112471;28;20184;-61
2023/01/16 07:01:36;;;;;;;2.80;2.60;;;3.60;99.90;;;;;;5112786;28;20174;-65
2023/01/16 07:04:02;;;;;;;6.87;4.60;;;3.50;99.90;;;;;;5112946;28;20318;-65
2023/01/16 07:06:28;;;;;;;4.73;3.80;;;3.60;99.90;;;;;;5111381;28;20181;-63
2023/01/16 07:08:53;;;;;;;4.67;3.90;;;3.60;99.90;;;;;;5113031;28;20535;-65
2023/01/16 07:11:19;;;;;;;3.63;3.37;;;3.70;99.90;;;;;;5111881;28;20314;-62
2023/01/16 07:13:45;;;;;;;3.50;3.20;;;3.70;99.90;;;;;;5111480;28;20176;-66
2023/01/16 07:24:32;;;;;;;5.47;4.70;;;3.50;99.90;;;;;;5113456;28;20219;-66
2023/01/16 07:27:02;;;;;;;5.70;5.10;;;3.50;99.90;;;;;;5112301;28;20170;-63
2023/01/16 07:29:31;;;;;;;7.73;5.93;;;3.40;99.90;;;;;;5111427;28;20217;-66
2023/01/16 07:32:00;;;;;;;7.20;6.27;;;3.50;99.90;;;;;;5112155;28;20181;-65
2023/01/16 07:34:26;;;;;;;6.17;5.30;;;3.50;99.90;;;;;;5111694;28;20273;-63
2023/01/16 07:36:52;;;;;;;8.13;4.93;;;3.50;99.90;;;;;;5111304;28;20174;-66
2023/01/16 07:39:18;;;;;;;5.97;5.43;;;3.50;99.90;;;;;;5111512;28;20185;-66
2023/01/16 07:41:43;;;;;;;5.80;4.67;;;3.50;99.90;;;;;;5111662;28;20636;-64
2023/01/16 07:44:10;;;;;;;4.73;4.37;;;3.60;99.90;;;;;;5112520;28;20286;-65
2023/01/16 07:46:36;;;;;;;5.00;4.60;;;3.50;99.90;;;;;;5111894;28;20236;-69
2023/01/16 07:49:01;;;;;;;4.97;4.30;;;3.50;99.90;;;;;;5112552;28;20170;-65
2023/01/16 07:51:28;;;;;;;4.40;4.00;;;3.40;99.90;;;;;;5112503;28;20173;-64
2023/01/16 07:53:53;;;;;;;5.40;4.17;;;3.40;99.90;;;;;;5111977;28;20535;-62
2023/01/16 07:56:20;;;;;;;5.07;4.57;;;3.50;99.90;;;;;;5112585;28;20185;-62
2023/01/16 07:58:46;;;;;;;5.23;4.73;;;3.50;99.90;;;;;;5112476;28;20175;-65
2023/01/16 08:01:12;;;;;;;6.43;4.57;;;3.50;99.90;;;;;;5112152;28;20175;-62
2023/01/16 08:03:38;;;;;;;4.97;4.57;;;3.50;99.90;;;;;;5112104;28;20251;-61
2023/01/16 08:06:04;;;;;;;4.80;4.40;;;3.50;99.90;;;;;;5112677;28;20170;-61
2023/01/16 08:08:30;;;;;;;5.93;5.03;;;3.60;99.90;;;;;;5113144;28;20176;-62
2023/01/16 08:10:58;;;;;;;5.00;4.43;;;3.70;99.90;;;;;;5113718;28;20178;-61
2023/01/16 08:13:25;;;;;;;6.30;5.33;;;3.80;99.90;;;;;;5112130;28;20180;-62
2023/01/16 08:15:51;;;;;;;6.47;5.30;;;3.80;99.90;;;;;;5094051;28;20162;-61
2023/01/16 08:18:18;;;;;;;7.63;5.67;;;3.90;99.90;;;;;;5112413;28;20231;-63
2023/01/16 08:20:44;;;;;;;7.00;5.60;;;4.00;99.90;;;;;;5112498;28;20263;-67
2023/01/16 08:23:11;;;;;;;7.13;5.90;;;4.00;99.90;;;;;;5113491;28;20326;-65
2023/01/16 08:25:37;;;;;;;6.40;5.20;;;4.00;99.90;;;;;;5112581;28;20222;-69
2023/01/16 08:28:03;;;;;;;6.60;4.53;;;4.00;99.90;;;;;;5115955;28;20171;-66
2023/01/16 08:30:29;;;;;;;6.43;5.23;;;3.90;99.90;;;;;;5116105;28;20174;-68
2023/01/16 08:32:59;;;;;;;10.67;5.97;;;3.90;99.90;;;;;;5115015;28;20173;-68
2023/01/16 08:35:25;;;;;;;11.13;6.53;;;4.00;99.90;;;;;;5115138;28;20182;-66
2023/01/16 08:37:50;;;;;;;13.00;8.97;;;3.90;99.90;;;;;;5115313;28;20539;-65
2023/01/16 08:40:17;;;;;;;16.77;11.03;;;4.00;99.90;;;;;;5117580;28;20180;-67
2023/01/16 08:51:24;;;;;;;8.33;6.00;;;4.00;99.90;;;;;;5115290;28;20255;-64
2023/01/16 08:53:56;;;;;;;6.53;5.10;;;3.90;99.90;;;;;;5115260;28;20996;-63
2023/01/16 08:56:22;;;;;;;6.03;5.23;;;4.00;99.90;;;;;;5115417;28;20162;-63
2023/01/16 08:58:48;;;;;;;6.53;5.13;;;4.10;99.90;;;;;;5097204;28;20174;-62
2023/01/16 09:01:15;;;;;;;6.23;5.63;;;4.10;99.90;;;;;;5115231;28;20627;-62
2023/01/16 09:03:41;;;;;;;8.37;6.40;;;4.10;99.90;;;;;;5115287;28;20275;-66
2023/01/16 09:06:07;;;;;;;7.93;5.60;;;4.10;99.90;;;;;;5115040;28;20173;-62
2023/01/16 09:08:33;;;;;;;8.53;6.60;;;4.00;99.90;;;;;;5115323;28;20173;-65
2023/01/16 09:13:48;;;;;;;7.67;4.87;;;3.90;99.90;;;;;;5115332;28;20789;-64
2023/01/16 09:16:23;;;;;;;8.97;5.07;;;3.80;99.90;;;;;;5115194;28;20585;-66
2023/01/16 09:18:49;;;;;;;5.40;4.90;;;3.90;99.90;;;;;;5114836;28;20511;-67
2023/01/16 09:21:15;;;;;;;4.87;4.20;;;3.80;99.90;;;;;;5114898;28;20170;-66
2023/01/16 09:23:41;;;;;;;6.10;4.67;;;3.80;99.90;;;;;;5115317;28;20207;-69
2023/01/16 09:26:08;;;;;;;5.47;4.97;;;3.80;99.90;;;;;;5114747;28;20190;-65
2023/01/16 09:28:33;;;;;;;6.13;4.93;;;3.80;99.90;;;;;;5114678;28;20178;-65
2023/01/16 09:30:59;;;;;;;4.97;4.37;;;3.90;99.90;;;;;;5115179;28;20172;-69
2023/01/16 09:33:25;;;;;;;5.80;4.97;;;4.00;99.90;;;;;;5114915;28;20170;-66
2023/01/16 09:35:51;;;;;;;4.90;4.10;;;4.10;99.90;;;;;;5114680;28;20533;-66
2023/01/16 09:38:16;;;;;;;4.87;4.47;;;4.20;99.90;;;;;;5114572;28;20188;-63
2023/01/16 09:40:49;;;;;;;6.90;5.10;;;4.30;99.90;;;;;;5114500;28;20174;-66
2023/01/16 09:43:38;;;;;;;5.73;4.57;;;4.30;99.90;;;;;;5114295;28;20237;-61
2023/01/16 09:46:26;;;;;;;5.77;5.17;;;4.30;99.90;;;;;;5114485;28;20312;-61
2023/01/16 09:49:00;;;;;;;6.30;4.97;;;4.30;99.90;;;;;;5114676;28;20242;-64
2023/01/16 09:51:28;;;;;;;5.67;5.17;;;4.30;99.90;;;;;;5113772;28;20181;-66
2023/01/16 09:59:46;;;;;;;9.40;5.40;;;4.30;99.90;;;;;;5082486;28;20209;-66
2023/01/16 10:02:32;;;;;;;6.33;4.90;;;4.40;99.90;;;;;;5114227;28;20154;-69
2023/01/16 10:05:01;;;;;;;6.73;5.27;;;4.40;99.90;;;;;;5113990;28;20162;-65
2023/01/16 10:07:39;;;;;;;9.90;5.07;;;4.40;99.90;;;;;;5113829;28;20222;-66
2023/01/16 10:10:23;;;;;;;12.03;5.10;;;4.50;99.90;;;;;;5113956;28;20532;-67
2023/01/16 10:13:06;;;;;;;9.37;5.17;;;4.40;99.90;;;;;;5113827;28;20629;-65
2023/01/16 10:15:37;;;;;;;5.80;5.17;;;4.50;99.90;;;;;;5113749;28;20196;-64
2023/01/16 10:18:24;;;;;;;5.90;5.33;;;4.60;99.90;;;;;;5114788;28;20207;-67
2023/01/16 10:21:00;;;;;;;7.63;5.40;;;4.70;99.90;;;;;;5113508;28;20175;-68
2023/01/16 10:23:47;;;;;;;10.03;5.50;;;4.80;99.90;;;;;;5113475;28;20652;-66
2023/01/16 10:26:23;;;;;;;5.27;4.43;;;4.70;99.90;;;;;;5113910;28;20269;-67
2023/01/16 10:29:11;;;;;;;5.67;4.77;;;4.60;99.90;;;;;;5113761;28;20653;-69
2023/01/16 10:31:53;;;;;;;5.27;4.77;;;4.60;99.90;;;;;;5113697;28;20170;-64
2023/01/16 10:34:25;;;;;;;5.47;4.47;;;4.50;99.90;;;;;;5113581;28;20166;-66
2023/01/16 10:36:57;;;;;;;5.37;4.77;;;4.50;99.90;;;;;;5096211;28;20158;-68
2023/01/16 10:39:35;;;;;;;4.97;4.43;;;4.50;99.90;;;;;;5113788;28;20640;-66
2023/01/16 10:50:32;;;;;;;5.17;4.67;;;4.60;99.90;;;;;;5112665;28;20630;-64
2023/01/16 10:52:58;;;;;;;5.67;4.40;;;4.60;99.90;;;;;;5112988;28;20260;-62
2023/01/16 10:55:24;;;;;;;6.57;4.53;;;4.60;99.90;;;;;;5113108;28;20170;-63
2023/01/16 10:57:56;;;;;;;4.10;3.80;;;4.70;99.90;;;;;;5113344;28;20186;-64
2023/01/16 11:00:29;;;;;;;6.77;4.03;;;4.70;99.90;;;;;;5113383;28;20582;-62
2023/01/16 11:03:07;;;;;;;4.53;4.13;;;4.70;99.90;;;;;;5113302;28;20301;-61
2023/01/16 11:05:35;;;;;;;5.23;4.00;;;4.80;99.90;;;;;;5113327;28;20165;-61
2023/01/16 11:08:11;;;;;;;6.07;3.73;;;4.90;99.90;;;;;;5113433;28;20178;-61
2023/01/16 11:10:40;;;;;;;4.10;3.70;;;4.90;99.90;;;;;;5112884;28;20160;-62
2023/01/16 11:18:45;;;;;;;3.70;3.40;;;4.90;99.90;;;;;;5112566;28;20227;-63
2023/01/16 11:21:27;;;;;;;4.80;3.20;;;4.90;99.90;;;;;;5112831;28;20623;-62
2023/01/16 11:24:17;;;;;;;3.80;3.50;;;4.80;99.90;;;;;;5112494;28;20201;-64
2023/01/16 11:26:49;;;;;;;3.97;3.30;;;4.70;99.90;;;;;;5113055;28;20219;-61
2023/01/16 11:29:19;;;;;;;4.17;3.83;;;4.70;99.90;;;;;;5113041;28;20528;-64
2023/01/16 11:31:54;;;;;;;3.37;3.17;;;4.70;99.90;;;;;;5112875;28;20174;-61
2023/01/16 11:34:25;;;;;;;4.07;3.77;;;4.70;99.90;;;;;;5112353;28;20225;-61
2023/01/16 11:36:54;;;;;;;4.10;3.77;;;4.70;99.90;;;;;;5112453;28;20158;-63
2023/01/16 11:39:24;;;;;;;3.60;3.30;;;4.80;99.90;;;;;;5112290;28;20166;-66
2023/01/16 11:41:55;;;;;;;4.33;4.00;;;4.80;99.90;;;;;;5112578;28;20644;-66
2023/01/16 11:47:40;;;;;;;4.17;3.80;;;4.80;99.90;;;;;;5112983;28;20578;-65
2023/01/16 11:50:21;;;;;;;4.97;4.37;;;4.70;99.90;;;;;;5112264;28;20655;-66
2023/01/16 11:52:48;;;;;;;4.17;3.70;;;4.70;99.90;;;;;;5112388;28;20532;-64
2023/01/16 11:55:15;;;;;;;3.93;3.63;;;4.70;99.90;;;;;;5112078;28;20205;-64
2023/01/16 11:58:25;;;;;;;4.70;3.90;;;4.70;99.90;;;;;;5094211;28;20264;-66
2023/01/16 12:00:59;;;;;;;4.27;3.77;;;4.60;99.90;;;;;;5022873;28;20232;-65
2023/01/16 12:03:43;;;;;;;3.93;3.63;;;4.60;99.90;;;;;;5116437;28;20288;-64
2023/01/16 12:06:24;;;;;;;3.90;3.60;;;4.70;99.90;;;;;;5116834;28;20151;-64
2023/01/16 12:09:04;;;;;;;4.47;3.80;;;4.80;99.90;;;;;;5116640;28;20162;-68
2023/01/16 12:14:17;;;;;;;4.10;3.70;;;4.80;99.90;;;;;;5115480;28;20250;-69
2023/01/16 12:14:59;;;;;;;3.83;3.53;;;4.80;99.90;;;;;;5116503;28;20169;-65
2023/01/16 12:17:34;;;;;;;3.67;3.37;;;4.70;99.90;;;;;;5116345;28;20177;-63
2023/01/16 12:20:00;;;;;;;3.83;3.50;;;4.70;99.90;;;;;;5116058;28;20177;-67
2023/01/16 12:22:55;;;;;;;4.23;3.67;;;4.80;99.90;;;;;;5115998;28;20556;-64
2023/01/16 12:25:26;;;;;;;6.23;3.60;;;4.80;99.90;;;;;;5097899;28;20205;-65
2023/01/16 12:28:10;;;;;;;3.67;3.37;;;4.80;99.90;;;;;;5116112;28;20178;-67
2023/01/16 12:31:03;;;;;;;3.53;3.23;;;4.90;99.90;;;;;;5116097;28;20157;-65
2023/01/16 12:33:57;;;;;;;4.13;3.77;;;4.90;99.90;;;;;;5097318;28;20173;-62
2023/01/16 12:36:38;;;;;;;3.90;3.60;;;5.00;99.90;;;;;;5097597;28;20174;-64
2023/01/16 12:39:24;;;;;;;3.87;3.53;;;5.10;99.90;;;;;;5115620;28;20166;-61
2023/01/16 12:45:37;;;;;;;3.80;3.50;;;5.20;99.90;;;;;;5115500;28;20665;-65
2023/01/16 12:48:30;;;;;;;5.40;3.90;;;5.40;99.90;;;;;;5115408;28;20158;-66
2023/01/16 12:51:32;;;;;;;6.83;4.70;;;5.40;99.90;;;;;;5115089;28;20170;-66
2023/01/16 12:54:25;;;;;;;5.20;4.57;;;5.40;99.90;;;;;;5115523;28;20162;-64
2023/01/16 12:57:23;;;;;;;5.20;4.70;;;5.40;99.90;;;;;;5115630;28;20166;-65
2023/01/16 13:00:12;;;;;;;5.53;4.80;;;5.40;99.90;;;;;;5116499;28;20170;-67
2023/01/16 13:03:17;;;;;;;4.70;4.20;;;5.50;99.90;;;;;;5123203;28;20256;-65
2023/01/16 13:05:46;;;;;;;5.60;4.93;;;5.50;99.90;;;;;;5115566;28;20205;-67
2023/01/16 13:08:20;;;;;;;5.63;4.23;;;5.60;99.90;;;;;;5115429;28;20263;-64
2023/01/16 13:13:57;;;;;;;4.70;4.03;;;5.50;99.90;;;;;;5114514;28;20168;-62
2023/01/16 13:16:31;;;;;;;4.50;4.10;;;5.60;99.90;;;;;;5114789;28;20155;-64
2023/01/16 13:19:17;;;;;;;4.67;3.33;;;5.60;99.90;;;;;;5114936;28;20162;-66
2023/01/16 13:21:57;;;;;;;4.17;3.57;;;5.60;99.90;;;;;;5115130;28;20162;-63
2023/01/16 13:24:29;;;;;;;4.03;3.73;;;5.50;99.90;;;;;;5115168;28;20208;-65
2023/01/16 13:27:03;;;;;;;4.13;3.50;;;5.50;99.90;;;;;;5115103;28;20166;-63
2023/01/16 13:29:47;;;;;;;4.07;3.77;;;5.40;99.90;;;;;;5114799;28;20262;-68
2023/01/16 13:32:51;;;;;;;5.40;3.73;;;5.40;99.90;;;;;;5114943;28;20170;-68
2023/01/16 13:35:29;;;;;;;4.13;3.53;;;5.30;99.90;;;;;;5109721;28;20318;-69
2023/01/16 13:38:13;;;;;;;4.93;3.93;;;5.30;99.90;;;;;;5114991;28;20260;-71
2023/01/16 13:40:51;;;;;;;4.43;4.03;;;5.30;99.90;;;;;;5114636;28;20799;-69
2023/01/16 13:46:12;;;;;;;4.70;4.30;;;5.30;99.90;;;;;;5114624;28;20719;-68
2023/01/16 13:48:38;;;;;;;4.23;3.93;;;5.30;99.90;;;;;;5114627;28;20190;-71
2023/01/16 13:51:14;;;;;;;4.13;3.73;;;5.30;99.90;;;;;;5114261;28;20170;-70
2023/01/16 13:53:41;;;;;;;4.23;3.83;;;5.40;99.90;;;;;;5114123;28;20210;-71
2023/01/16 13:56:26;;;;;;;4.80;4.37;;;5.40;99.90;;;;;;5114693;28;20167;-69
2023/01/16 13:59:03;;;;;;;4.57;3.87;;;5.40;99.90;;;;;;5114144;28;20645;-69
2023/01/16 14:01:37;;;;;;;4.33;4.00;;;5.50;99.90;;;;;;5114274;28;20150;-66
2023/01/16 14:04:15;;;;;;;4.47;4.07;;;5.50;99.90;;;;;;5114004;28;20202;-63
2023/01/16 14:10:00;;;;;;;3.90;3.57;;;5.40;99.90;;;;;;5114347;28;20168;-63
2023/01/16 14:12:34;;;;;;;3.77;3.50;;;5.50;99.90;;;;;;5114016;28;20176;-66
2023/01/16 14:18:18;;;;;;;4.20;3.57;;;5.20;99.90;;;;;;5114008;28;20176;-61
2023/01/16 14:20:47;;;;;;;5.27;3.87;;;5.20;99.90;;;;;;5113800;28;20166;-67
2023/01/16 14:26:06;;;;;;;4.63;4.23;;;5.20;99.90;;;;;;5114032;28;20641;-65
2023/01/16 14:28:34;;;;;;;5.60;4.30;;;5.30;99.90;;;;;;5095487;28;20578;-67